Viking Pride — VG4385 — position and weather

sailwx.info

Track history (hours):
 
Tides and Currents Weather Stations Pressure Air Temp Water Temp Dewpoint Dewpoint Depression Visibility Wind Speed Wind Dir Waves Ship Positions

Viking Pride

Last reported at 2018-Jun-22 18:42 UTC. Time now 2018-Jun-22 22:56 UTC.
Position N 48°54' W 125°59'.

Length 22 m; draft 3 m.

Type: Fishing. MMSI: 316011441.

Date/timePositionNaut miles runAvg speedWind from/ knotsBaromVisibWave heightAir tempDewpointWater temp
2018-Jun-22 18:42N 48°54' W 125°59'2 8.3
2018-Jun-22 18:28N 48°54' W 125°56'3 6.9
2018-Jun-22 18:00N 48°54' W 125°52'4 7.7
2018-Jun-22 17:30N 48°54' W 125°46'4 8.1
2018-Jun-22 17:00N 48°54' W 125°40'4 7.7
2018-Jun-22 16:30N 48°54' W 125°34'3 5.1
2018-Jun-22 16:00N 48°57' W 125°32'1 1.6
2018-Jun-22 15:30N 48°57' W 125°33'0 0.0
2018-Jun-22 15:00N 48°57' W 125°33'0 0.0
2018-Jun-22 14:30N 48°57' W 125°33'0 0.0
2018-Jun-22 14:00N 48°57' W 125°33'0 0.0
2018-Jun-22 13:30N 48°57' W 125°33'0 0.0
2018-Jun-22 13:00N 48°57' W 125°33'0 0.0
2018-Jun-22 12:30N 48°57' W 125°33'0 0.0
2018-Jun-22 12:00N 48°57' W 125°33'0 0.0
2018-Jun-22 11:30N 48°57' W 125°33'0 0.0
2018-Jun-22 11:00N 48°57' W 125°33'0 0.0
2018-Jun-22 10:30N 48°57' W 125°33'0 0.0
2018-Jun-22 10:00N 48°57' W 125°33'0 0.0
2018-Jun-22 09:30N 48°57' W 125°33'0 0.0
2018-Jun-22 09:00N 48°57' W 125°33'0 0.0
2018-Jun-22 08:30N 48°57' W 125°33'0 0.0
2018-Jun-22 08:00N 48°57' W 125°33'0 0.0
2018-Jun-22 07:30N 48°57' W 125°33'0 0.0
2018-Jun-22 07:00N 48°57' W 125°33'0 0.0
2018-Jun-22 06:30N 48°57' W 125°33'0 0.0
2018-Jun-22 06:00N 48°57' W 125°33'0 0.0
2018-Jun-22 05:30N 48°57' W 125°33'0 0.0
2018-Jun-22 05:00N 48°57' W 125°33'1 1.2
2018-Jun-22 04:30N 48°57' W 125°33'0 0.1
2018-Jun-22 04:00N 48°57' W 125°33'0 0.1
2018-Jun-22 03:30N 48°57' W 125°33'0 0.0
2018-Jun-22 03:00N 48°57' W 125°33'0 0.0
2018-Jun-22 02:30N 48°57' W 125°33'0 0.0
2018-Jun-22 02:00N 48°57' W 125°33'0 0.0
2018-Jun-22 01:30N 48°57' W 125°33'0 0.0
2018-Jun-22 01:00N 48°57' W 125°33'0 0.0
2018-Jun-22 00:30N 48°57' W 125°33'0 0.0
2018-Jun-22 00:00N 48°57' W 125°33'0 0.0
2018-Jun-21 23:30N 48°57' W 125°33'0 0.0
2018-Jun-21 23:00N 48°57' W 125°33'0 0.0
2018-Jun-21 22:30N 48°57' W 125°33'0 0.4
2018-Jun-21 22:00N 48°57' W 125°33'0 0.3
2018-Jun-21 21:30N 48°57' W 125°33'3 5.7
2018-Jun-21 21:00N 48°54' W 125°33'4 7.6
2018-Jun-21 20:30N 48°52' W 125°37'4 7.5
2018-Jun-21 20:00N 48°50' W 125°43'4 7.6
2018-Jun-21 19:30N 48°48' W 125°48'4 7.4
2018-Jun-21 19:00N 48°47' W 125°53'4 7.5
2018-Jun-21 18:30N 48°45' W 125°57'4 7.1
2018-Jun-21 18:00N 48°43' W 126°02'3 6.9
2018-Jun-21 17:30N 48°41' W 126°06'4 7.2
2018-Jun-21 17:00N 48°39' W 126°11'1 1.1
2018-Jun-21 16:15N 48°39' W 126°12'0 0.8
2018-Jun-21 15:59N 48°39' W 126°13'2 2.2
2018-Jun-21 15:02N 48°37' W 126°11'0 2.5
2018-Jun-21 14:55N 48°37' W 126°11'1 2.6
2018-Jun-21 14:29N 48°36' W 126°10'4 7.5
2018-Jun-21 13:59N 48°38' W 126°14'2 4.4
2018-Jun-21 13:29N 48°37' W 126°12'3 6.8
2018-Jun-21 13:00N 48°34' W 126°10'4 6.5
2018-Jun-21 12:28N 48°31' W 126°08'3 6.0
2018-Jun-21 11:58N 48°30' W 126°04'0 0.8
2018-Jun-21 11:29N 48°30' W 126°04'0 1.0
2018-Jun-21 11:00N 48°30' W 126°05'1 1.0
2018-Jun-21 10:28N 48°31' W 126°05'0 0.9
2018-Jun-21 09:58N 48°31' W 126°06'0 0.9
2018-Jun-21 09:30N 48°31' W 126°07'0 0.8
2018-Jun-21 08:57N 48°31' W 126°07'0 0.8
2018-Jun-21 08:30N 48°31' W 126°08'0 0.8
2018-Jun-21 08:00N 48°31' W 126°08'2 2.8
2018-Jun-21 07:08N 48°31' W 126°05'2 7.6
2018-Jun-21 06:54N 48°31' W 126°02'4 7.7
2018-Jun-21 06:23N 48°30' W 125°56'4 7.7
2018-Jun-21 05:55N 48°30' W 125°51'3 7.7
2018-Jun-21 05:29N 48°29' W 125°46'4 7.9
2018-Jun-21 05:00N 48°28' W 125°40'4 7.7
2018-Jun-21 04:29N 48°28' W 125°34'4 3.5
2018-Jun-21 03:18N 48°27' W 125°28'1 2.4
2018-Jun-21 02:58N 48°27' W 125°27'2 2.4
2018-Jun-21 02:15N 48°28' W 125°24'0 1.2
2018-Jun-21 02:00N 48°28' W 125°24'4 5.0
2018-Jun-21 01:16N 48°27' W 125°18'3 7.9
2018-Jun-21 00:55N 48°27' W 125°14'5 6.8
2018-Jun-21 00:14N 48°28' W 125°07'3 8.3
2018-Jun-20 23:55N 48°29' W 125°11'3 8.2
2018-Jun-20 23:30N 48°30' W 125°16'5 7.2
2018-Jun-20 22:51N 48°29' W 125°23'3 7.1
2018-Jun-20 22:29N 48°27' W 125°25'3 2.9
2018-Jun-20 21:18N 48°30' W 125°22'2 6.3
2018-Jun-20 21:00N 48°29' W 125°19'2 3.6
2018-Jun-20 20:25N 48°29' W 125°16'5 2.5
2018-Jun-20 18:29N 48°32' W 125°22'1 2.0
2018-Jun-20 18:00N 48°31' W 125°23'1 2.2
2018-Jun-20 17:29N 48°30' W 125°24'2 1.6
2018-Jun-20 16:04N 48°32' W 125°22'0 2.6
2018-Jun-20 16:00N 48°32' W 125°22'3 5.1
2018-Jun-20 15:28N 48°30' W 125°23'3 5.5
2018-Jun-20 14:53N 48°26' W 125°23'3 7.8
2018-Jun-20 14:30N 48°26' W 125°18'5 2.6
2018-Jun-20 12:46N 48°31' W 125°19'3 5.6
2018-Jun-20 12:12N 48°33' W 125°22'1 2.9
2018-Jun-20 12:00N 48°33' W 125°23'10 6.8
2018-Jun-20 10:28N 48°43' W 125°27'4 8.1
2018-Jun-20 10:00N 48°47' W 125°28'4 8.4
2018-Jun-20 09:30N 48°51' W 125°30'4 8.1
2018-Jun-20 09:00N 48°55' W 125°31'2 3.8
2018-Jun-20 08:30N 48°57' W 125°33'0 0.0
2018-Jun-20 08:00N 48°57' W 125°33'0 0.0
2018-Jun-20 07:30N 48°57' W 125°33'0 0.0
2018-Jun-20 07:00N 48°57' W 125°33'0 0.0
2018-Jun-20 06:30N 48°57' W 125°33'0 0.0
2018-Jun-20 06:00N 48°57' W 125°33'0 0.0
2018-Jun-20 05:30N 48°57' W 125°33'0 0.0
2018-Jun-20 05:00N 48°57' W 125°33'0 0.0
2018-Jun-20 04:30N 48°57' W 125°33'0 0.0
2018-Jun-20 04:00N 48°57' W 125°33'0 0.0
2018-Jun-20 03:30N 48°57' W 125°33'0 0.0
2018-Jun-20 03:00N 48°57' W 125°33'0 0.0
2018-Jun-20 02:30N 48°57' W 125°33'0 0.0
2018-Jun-20 02:00N 48°57' W 125°33'0 0.0
2018-Jun-20 01:30N 48°57' W 125°33'0 0.1
2018-Jun-20 01:00N 48°57' W 125°33'0 0.0
2018-Jun-20 00:30N 48°57' W 125°33'0 0.0
2018-Jun-20 00:00N 48°57' W 125°33'0 0.0
2018-Jun-19 23:30N 48°57' W 125°33'0 0.0
2018-Jun-19 23:00N 48°57' W 125°33'0 0.0
2018-Jun-19 22:30N 48°57' W 125°33'1 1.1
2018-Jun-19 22:00N 48°56' W 125°32'0 0.0
2018-Jun-19 21:30N 48°56' W 125°32'1 1.8
2018-Jun-19 21:00N 48°57' W 125°33'0 0.6
2018-Jun-19 20:30N 48°57' W 125°33'0 0.1
2018-Jun-19 20:00N 48°57' W 125°33'0 0.0
2018-Jun-19 19:30N 48°57' W 125°33'0 0.0
2018-Jun-19 19:00N 48°57' W 125°33'0 0.0
2018-Jun-19 18:30N 48°57' W 125°33'0 0.0
2018-Jun-19 18:00N 48°57' W 125°33'0 0.0
2018-Jun-19 17:30N 48°57' W 125°33'0 0.0
2018-Jun-19 17:00N 48°57' W 125°33'0 0.0
2018-Jun-19 16:30N 48°57' W 125°33'0 0.0
2018-Jun-19 16:00N 48°57' W 125°33'0 0.0
2018-Jun-19 15:30N 48°57' W 125°33'0 0.0
2018-Jun-19 15:00N 48°57' W 125°33'0 0.0
2018-Jun-19 14:30N 48°57' W 125°33'0 0.0
2018-Jun-19 14:00N 48°57' W 125°33'0 0.0
2018-Jun-19 13:30N 48°57' W 125°33'0 0.0
2018-Jun-19 13:00N 48°57' W 125°33'0 0.0
2018-Jun-19 12:30N 48°57' W 125°33'0 0.0
2018-Jun-19 12:00N 48°57' W 125°33'0 0.0
2018-Jun-19 11:30N 48°57' W 125°33'0 0.0
2018-Jun-19 11:00N 48°57' W 125°33'0 0.0
2018-Jun-19 10:30N 48°57' W 125°33'0 0.0
2018-Jun-19 10:00N 48°57' W 125°33'0 0.0
2018-Jun-19 09:30N 48°57' W 125°33'0 0.0
2018-Jun-19 09:00N 48°57' W 125°33'0 0.0
2018-Jun-19 08:30N 48°57' W 125°33'0 0.0
2018-Jun-19 08:00N 48°57' W 125°33'0 0.0
2018-Jun-19 07:30N 48°57' W 125°33'0 0.0
2018-Jun-19 07:00N 48°57' W 125°33'0 0.0
2018-Jun-19 06:30N 48°57' W 125°33'0 0.0
2018-Jun-19 06:00N 48°57' W 125°33'0 0.0
2018-Jun-19 05:30N 48°57' W 125°33'0 0.0
2018-Jun-19 05:00N 48°57' W 125°33'0 0.0
2018-Jun-19 04:30N 48°57' W 125°33'0 0.0
2018-Jun-19 04:00N 48°57' W 125°33'0 0.0
2018-Jun-19 03:30N 48°57' W 125°33'0 0.0
2018-Jun-19 03:00N 48°57' W 125°33'0 0.0
2018-Jun-19 02:30N 48°57' W 125°33'0 0.0
2018-Jun-19 02:00N 48°57' W 125°33'0 0.0
2018-Jun-19 01:30N 48°57' W 125°33'0 0.0
2018-Jun-19 01:00N 48°57' W 125°33'0 0.0
2018-Jun-19 00:30N 48°57' W 125°33'0 0.0
2018-Jun-19 00:00N 48°57' W 125°33'0 0.0
2018-Jun-18 23:30N 48°57' W 125°33'0 0.0
2018-Jun-18 23:00N 48°57' W 125°33'0 0.0
2018-Jun-18 22:30N 48°57' W 125°33'0 0.0
2018-Jun-18 22:00N 48°57' W 125°33'0 0.0
2018-Jun-18 21:30N 48°57' W 125°33'0 0.0
2018-Jun-18 21:00N 48°57' W 125°33'0 0.0
2018-Jun-18 20:30N 48°57' W 125°33'0 0.0
2018-Jun-18 20:00N 48°57' W 125°33'0 0.0
2018-Jun-18 19:30N 48°57' W 125°33'0 0.0
2018-Jun-18 19:00N 48°57' W 125°33'0 0.0
2018-Jun-18 18:30N 48°57' W 125°33'0 0.0
2018-Jun-18 18:00N 48°57' W 125°33'0 0.0
2018-Jun-18 17:30N 48°57' W 125°33'0 0.0
2018-Jun-18 17:00N 48°57' W 125°33'0 0.0
2018-Jun-18 16:30N 48°57' W 125°33'0 0.0
2018-Jun-18 16:00N 48°57' W 125°33'0 0.0
2018-Jun-18 15:30N 48°57' W 125°33'0 0.0
2018-Jun-18 15:00N 48°57' W 125°33'0 0.0
2018-Jun-18 14:30N 48°57' W 125°33'0 0.0
2018-Jun-18 14:00N 48°57' W 125°33'0 0.0
2018-Jun-18 13:30N 48°57' W 125°33'0 0.0
2018-Jun-18 13:00N 48°57' W 125°33'0 0.0
2018-Jun-18 12:30N 48°57' W 125°33'0 0.0
2018-Jun-18 12:00N 48°57' W 125°33'0 0.0
2018-Jun-18 11:30N 48°57' W 125°33'0 0.0
2018-Jun-18 11:00N 48°57' W 125°33'0 0.0
2018-Jun-18 10:30N 48°57' W 125°33'0 0.0
2018-Jun-18 10:00N 48°57' W 125°33'0 0.0
2018-Jun-18 09:30N 48°57' W 125°33'0 0.0
2018-Jun-18 09:00N 48°57' W 125°33'0 0.0
2018-Jun-18 08:30N 48°57' W 125°33'0 0.0
2018-Jun-18 08:00N 48°57' W 125°33'0 0.0
2018-Jun-18 07:30N 48°57' W 125°33'0 0.0
2018-Jun-18 07:00N 48°57' W 125°33'0 0.0
2018-Jun-18 06:30N 48°57' W 125°33'0 0.0
2018-Jun-18 06:00N 48°57' W 125°33'0 0.0
2018-Jun-18 05:30N 48°57' W 125°33'0 0.0
2018-Jun-18 05:00N 48°57' W 125°33'0 0.0
2018-Jun-18 04:30N 48°57' W 125°33'0 0.0
2018-Jun-18 04:00N 48°57' W 125°33'0 0.0
2018-Jun-18 03:30N 48°57' W 125°33'0 0.0
2018-Jun-18 03:00N 48°57' W 125°33'0 0.0
2018-Jun-18 02:30N 48°57' W 125°33'0 0.0
2018-Jun-18 02:00N 48°57' W 125°33'0 0.0
2018-Jun-18 01:30N 48°57' W 125°33'0 0.0
2018-Jun-18 01:00N 48°57' W 125°33'0 0.0
2018-Jun-18 00:30N 48°57' W 125°33'0 0.0
2018-Jun-18 00:00N 48°57' W 125°33'0 0.0
2018-Jun-17 23:30N 48°57' W 125°33'0 0.0
2018-Jun-17 23:00N 48°57' W 125°33'0 0.0
2018-Jun-17 22:30N 48°57' W 125°33'0 0.0
2018-Jun-17 22:00N 48°57' W 125°33'0 0.0
2018-Jun-17 21:30N 48°57' W 125°33'0 0.0
2018-Jun-17 21:00N 48°57' W 125°33'0 0.0
2018-Jun-17 20:30N 48°57' W 125°33'0 0.0
2018-Jun-17 20:00N 48°57' W 125°33'0 0.0
2018-Jun-17 19:30N 48°57' W 125°33'0 0.0
2018-Jun-17 19:00N 48°57' W 125°33'0 0.0
2018-Jun-17 18:30N 48°57' W 125°33'0 0.0
2018-Jun-17 18:00N 48°57' W 125°33'0 0.0
2018-Jun-17 17:30N 48°57' W 125°33'0 0.0
2018-Jun-17 17:00N 48°57' W 125°33'0 0.0
2018-Jun-17 16:30N 48°57' W 125°33'0 0.0
2018-Jun-17 16:00N 48°57' W 125°33'0 0.0
2018-Jun-17 15:30N 48°57' W 125°33'0 0.0
2018-Jun-17 15:00N 48°57' W 125°33'0 0.0
2018-Jun-17 14:30N 48°57' W 125°33'0 0.0
2018-Jun-17 14:00N 48°57' W 125°33'0 0.0
2018-Jun-17 13:30N 48°57' W 125°33'0 0.0
2018-Jun-17 13:00N 48°57' W 125°33'0 0.0
2018-Jun-17 12:30N 48°57' W 125°33'0 0.0
2018-Jun-17 12:00N 48°57' W 125°33'0 0.0
2018-Jun-17 11:30N 48°57' W 125°33'0 0.0
2018-Jun-17 11:00N 48°57' W 125°33'0 0.0
2018-Jun-17 10:30N 48°57' W 125°33'0 0.0
2018-Jun-17 10:00N 48°57' W 125°33'0 0.0
2018-Jun-17 09:30N 48°57' W 125°33'0 0.0
2018-Jun-17 09:00N 48°57' W 125°33'0 0.0
2018-Jun-17 08:30N 48°57' W 125°33'0 0.0
2018-Jun-17 08:00N 48°57' W 125°33'0 0.0
2018-Jun-17 07:30N 48°57' W 125°33'0 0.0
2018-Jun-17 07:00N 48°57' W 125°33'0 0.0
2018-Jun-17 06:30N 48°57' W 125°33'0 0.0
2018-Jun-17 06:00N 48°57' W 125°33'0 0.0
2018-Jun-17 05:30N 48°57' W 125°33'0 0.0
2018-Jun-17 05:00N 48°57' W 125°33'0 0.0
2018-Jun-17 04:30N 48°57' W 125°33'0 0.0
2018-Jun-17 04:00N 48°57' W 125°33'0 0.0
2018-Jun-17 03:30N 48°57' W 125°33'0 0.0
2018-Jun-17 03:00N 48°57' W 125°33'0 0.0
2018-Jun-17 02:30N 48°57' W 125°33'0 0.0
2018-Jun-17 02:00N 48°57' W 125°33'0 0.0
2018-Jun-17 01:30N 48°57' W 125°33'0 0.0
2018-Jun-17 01:00N 48°57' W 125°33'0 0.0
2018-Jun-17 00:30N 48°57' W 125°33'0 0.0
2018-Jun-17 00:00N 48°57' W 125°33'0 0.0
2018-Jun-16 23:30N 48°57' W 125°33'0 0.0
2018-Jun-16 23:00N 48°57' W 125°33'0 0.0
2018-Jun-16 22:30N 48°57' W 125°33'0 0.0
2018-Jun-16 22:00N 48°57' W 125°33'0 0.0
2018-Jun-16 21:30N 48°57' W 125°33'0 0.0
2018-Jun-16 21:00N 48°57' W 125°33'0 0.0
2018-Jun-16 20:30N 48°57' W 125°33'0 0.0
2018-Jun-16 20:00N 48°57' W 125°33'0 0.0
2018-Jun-16 19:30N 48°57' W 125°33'0 0.0
2018-Jun-16 19:00N 48°57' W 125°33'0 0.0
2018-Jun-16 18:30N 48°57' W 125°33'0 0.0
2018-Jun-16 18:00N 48°57' W 125°33'0 0.0
2018-Jun-16 05:43N 48°57' W 125°33'0 0.0
2018-Jun-16 05:30N 48°57' W 125°33'0 0.0
2018-Jun-16 05:00N 48°57' W 125°33'0 0.0
2018-Jun-16 04:30N 48°57' W 125°33'0 0.0
2018-Jun-16 04:00N 48°57' W 125°33'0 0.0
2018-Jun-16 03:30N 48°57' W 125°33'0 0.0
2018-Jun-16 03:00N 48°57' W 125°33'0 0.0
2018-Jun-16 02:30N 48°57' W 125°33'0 0.0
2018-Jun-16 02:00N 48°57' W 125°33'0 0.0
2018-Jun-16 01:30N 48°57' W 125°33'0 0.0
2018-Jun-16 01:00N 48°57' W 125°33'0 0.0
2018-Jun-16 00:30N 48°57' W 125°33'0 0.0
2018-Jun-16 00:00N 48°57' W 125°33'0 0.0
2018-Jun-15 23:30N 48°57' W 125°33'0 0.0
2018-Jun-15 23:00N 48°57' W 125°33'0 0.0
2018-Jun-15 22:30N 48°57' W 125°33'0 0.0
2018-Jun-15 22:00N 48°57' W 125°33'0 0.0
2018-Jun-15 21:30N 48°57' W 125°33'0 0.0
2018-Jun-15 21:00N 48°57' W 125°33'0 0.0
2018-Jun-15 20:30N 48°57' W 125°33'0 0.0
2018-Jun-15 20:00N 48°57' W 125°33'0 0.0
2018-Jun-15 19:30N 48°57' W 125°33'0 0.0
2018-Jun-15 19:00N 48°57' W 125°33'0 0.0
2018-Jun-15 18:31N 48°57' W 125°33'0 0.0
2018-Jun-15 18:00N 48°57' W 125°33'0 0.0
2018-Jun-15 17:30N 48°57' W 125°33'0 0.0
2018-Jun-15 17:01N 48°57' W 125°33'0 0.0
2018-Jun-15 16:30N 48°57' W 125°33'0 0.0
2018-Jun-15 16:00N 48°57' W 125°33'0 0.0
2018-Jun-15 15:30N 48°57' W 125°33'0 0.0
2018-Jun-15 15:00N 48°57' W 125°33'0 0.0
2018-Jun-15 14:30N 48°57' W 125°33'0 0.0
2018-Jun-15 14:00N 48°57' W 125°33'0 0.0
2018-Jun-15 13:30N 48°57' W 125°33'0 0.0
2018-Jun-15 13:00N 48°57' W 125°33'0 0.0
2018-Jun-15 12:30N 48°57' W 125°33'0 0.0
2018-Jun-15 12:00N 48°57' W 125°33'0 0.0
2018-Jun-15 11:30N 48°57' W 125°33'0 0.0
2018-Jun-15 11:00N 48°57' W 125°33'0 0.0
2018-Jun-15 10:30N 48°57' W 125°33'0 0.0
2018-Jun-15 10:00N 48°57' W 125°33'0 0.0
2018-Jun-15 09:30N 48°57' W 125°33'0 0.0
2018-Jun-15 09:00N 48°57' W 125°33'0 0.0
2018-Jun-15 08:31N 48°57' W 125°33'0 0.0
2018-Jun-15 08:01N 48°57' W 125°33'0 0.0
2018-Jun-15 07:30N 48°57' W 125°33'0 0.0
2018-Jun-15 07:00N 48°57' W 125°33'0 0.0
2018-Jun-15 06:30N 48°57' W 125°33'0 0.0
2018-Jun-15 06:00N 48°57' W 125°33'0 0.0
2018-Jun-15 05:30N 48°57' W 125°33'0 0.0
2018-Jun-15 05:01N 48°57' W 125°33'0 1.0
2018-Jun-15 04:30N 48°57' W 125°33'0 0.0
2018-Jun-15 04:00N 48°57' W 125°33'0 0.0
2018-Jun-15 03:30N 48°57' W 125°33'0 0.0
2018-Jun-15 03:00N 48°57' W 125°33'0 0.0
2018-Jun-15 02:30N 48°57' W 125°33'0 0.0
2018-Jun-15 02:00N 48°57' W 125°33'0 0.0
2018-Jun-15 01:31N 48°57' W 125°33'0 0.0
2018-Jun-15 01:00N 48°57' W 125°33'0 0.0
2018-Jun-15 00:30N 48°57' W 125°33'0 0.0
2018-Jun-15 00:00N 48°57' W 125°33'0 0.0
2018-Jun-14 23:30N 48°57' W 125°33'0 0.0
2018-Jun-14 23:01N 48°57' W 125°33'0 0.0
2018-Jun-14 22:30N 48°57' W 125°33'0 0.0
2018-Jun-14 22:00N 48°57' W 125°33'0 0.0
2018-Jun-14 21:30N 48°57' W 125°33'0 0.0
2018-Jun-14 21:00N 48°57' W 125°33'0 0.0
2018-Jun-14 20:30N 48°57' W 125°33'0 0.0
2018-Jun-14 20:00N 48°57' W 125°33'0 0.0
2018-Jun-14 19:31N 48°57' W 125°33'0 0.0
2018-Jun-14 19:00N 48°57' W 125°33'0 0.0
2018-Jun-14 18:31N 48°57' W 125°33'0 0.0
2018-Jun-14 18:00N 48°57' W 125°33'0 0.0
2018-Jun-14 17:31N 48°57' W 125°33'0 0.0
2018-Jun-14 17:00N 48°57' W 125°33'0 0.1
2018-Jun-14 16:31N 48°57' W 125°33'0 0.0
2018-Jun-14 16:00N 48°57' W 125°33'0 0.0
2018-Jun-14 15:31N 48°57' W 125°33'0 0.0
2018-Jun-14 15:00N 48°57' W 125°33'0 0.0
2018-Jun-14 14:30N 48°57' W 125°33'0 0.0
2018-Jun-14 14:00N 48°57' W 125°33'0 0.0
2018-Jun-14 13:30N 48°57' W 125°33'0 0.0
2018-Jun-14 13:00N 48°57' W 125°33'0 0.0
2018-Jun-14 12:30N 48°57' W 125°33'0 0.0
2018-Jun-14 12:01N 48°57' W 125°33'0 0.0
2018-Jun-14 11:30N 48°57' W 125°33'0 0.0
2018-Jun-14 11:00N 48°57' W 125°33'0 0.0
2018-Jun-14 10:30N 48°57' W 125°33'0 0.0
2018-Jun-14 10:00N 48°57' W 125°33'0 1.0
2018-Jun-14 09:31N 48°56' W 125°32'2 3.3
2018-Jun-14 09:00N 48°55' W 125°34'3 7.0
2018-Jun-14 08:30N 48°57' W 125°39'3 6.8
2018-Jun-14 08:01N 48°58' W 125°43'3 7.0
2018-Jun-14 07:30N 48°60' W 125°48'3 6.8
2018-Jun-14 07:00N 49°02' W 125°53'3 6.9
2018-Jun-14 06:30N 49°03' W 125°57'4 7.0
2018-Jun-14 06:00N 49°05' W 126°02'4 7.4
2018-Jun-14 05:30N 49°07' W 126°07'4 7.3
2018-Jun-14 05:00N 49°08' W 126°12'4 7.3
2018-Jun-14 04:30N 49°10' W 126°17'4 7.1
2018-Jun-14 03:58N 49°12' W 126°22'3 6.9
2018-Jun-14 03:29N 49°13' W 126°27'3 6.7
2018-Jun-14 03:00N 49°15' W 126°31'3 6.7
2018-Jun-14 02:30N 49°16' W 126°36'3 6.7
2018-Jun-14 02:01N 49°18' W 126°40'3 6.5
2018-Jun-14 01:30N 49°20' W 126°44'4 6.6
2018-Jun-14 00:58N 49°22' W 126°48'3 6.8
2018-Jun-14 00:28N 49°24' W 126°53'4 6.7
2018-Jun-13 23:57N 49°25' W 126°58'4 6.7
2018-Jun-13 23:19N 49°28' W 127°03'9 0.7
2018-Jun-13 08:55N 49°21' W 126°53'3 6.9
2018-Jun-13 08:30N 49°20' W 126°50'4 7.5
2018-Jun-13 08:00N 49°18' W 126°44'4 7.8
2018-Jun-13 07:31N 49°16' W 126°39'4 7.9
2018-Jun-13 07:00N 49°15' W 126°33'4 7.8
2018-Jun-13 06:31N 49°13' W 126°28'4 7.9
2018-Jun-13 05:59N 49°11' W 126°22'17 7.7
2018-Jun-13 03:47N 49°04' W 125°59'2 7.5
2018-Jun-13 03:27N 49°02' W 125°56'4 7.8
2018-Jun-13 03:00N 49°01' W 125°51'4 8.5
2018-Jun-13 02:30N 48°59' W 125°45'4 8.8
2018-Jun-13 02:00N 48°57' W 125°39'4 8.5
2018-Jun-13 01:30N 48°55' W 125°34'2 3.1
2018-Jun-13 01:01N 48°57' W 125°33'0 0.0
2018-Jun-13 00:30N 48°57' W 125°33'0 0.1
2018-Jun-13 00:01N 48°57' W 125°33'0 0.0
2018-Jun-12 23:30N 48°57' W 125°33'0 0.0
2018-Jun-12 23:00N 48°57' W 125°33'0 0.0
2018-Jun-12 22:30N 48°57' W 125°33'0 0.0
2018-Jun-12 22:00N 48°57' W 125°33'0 0.0
2018-Jun-12 21:30N 48°57' W 125°33'1 1.0
2018-Jun-12 21:00N 48°57' W 125°33'0 0.0
2018-Jun-12 20:30N 48°57' W 125°33'0 0.0
2018-Jun-12 20:00N 48°57' W 125°33'0 0.0
2018-Jun-12 19:30N 48°57' W 125°33'0 0.0
2018-Jun-12 19:00N 48°57' W 125°33'  
Track history (hours):
 
Tides and Currents Weather Stations Pressure Air Temp Water Temp Dewpoint Dewpoint Depression Visibility Wind Speed Wind Dir Waves Ship Positions

Viking Pride

Last reported at 2018-Jun-22 18:42 UTC. Time now 2018-Jun-22 22:56 UTC.
Position N 48°54' W 125°59'.

Length 22 m; draft 3 m.

Type: Fishing. MMSI: 316011441.

Date/timePositionNaut miles runAvg speedWind from/ knotsBaromVisibWave heightAir tempDewpointWater temp
2018-Jun-22 18:42N 48°54' W 125°59'2 8.3
2018-Jun-22 18:28N 48°54' W 125°56'3 6.9
2018-Jun-22 18:00N 48°54' W 125°52'4 7.7
2018-Jun-22 17:30N 48°54' W 125°46'4 8.1
2018-Jun-22 17:00N 48°54' W 125°40'4 7.7
2018-Jun-22 16:30N 48°54' W 125°34'3 5.1
2018-Jun-22 16:00N 48°57' W 125°32'1 1.6
2018-Jun-22 15:30N 48°57' W 125°33'0 0.0
2018-Jun-22 15:00N 48°57' W 125°33'0 0.0
2018-Jun-22 14:30N 48°57' W 125°33'0 0.0
2018-Jun-22 14:00N 48°57' W 125°33'0 0.0
2018-Jun-22 13:30N 48°57' W 125°33'0 0.0
2018-Jun-22 13:00N 48°57' W 125°33'0 0.0
2018-Jun-22 12:30N 48°57' W 125°33'0 0.0
2018-Jun-22 12:00N 48°57' W 125°33'0 0.0
2018-Jun-22 11:30N 48°57' W 125°33'0 0.0
2018-Jun-22 11:00N 48°57' W 125°33'0 0.0
2018-Jun-22 10:30N 48°57' W 125°33'0 0.0
2018-Jun-22 10:00N 48°57' W 125°33'0 0.0
2018-Jun-22 09:30N 48°57' W 125°33'0 0.0
2018-Jun-22 09:00N 48°57' W 125°33'0 0.0
2018-Jun-22 08:30N 48°57' W 125°33'0 0.0
2018-Jun-22 08:00N 48°57' W 125°33'0 0.0
2018-Jun-22 07:30N 48°57' W 125°33'0 0.0
2018-Jun-22 07:00N 48°57' W 125°33'0 0.0
2018-Jun-22 06:30N 48°57' W 125°33'0 0.0
2018-Jun-22 06:00N 48°57' W 125°33'0 0.0
2018-Jun-22 05:30N 48°57' W 125°33'0 0.0
2018-Jun-22 05:00N 48°57' W 125°33'1 1.2
2018-Jun-22 04:30N 48°57' W 125°33'0 0.1
2018-Jun-22 04:00N 48°57' W 125°33'0 0.1
2018-Jun-22 03:30N 48°57' W 125°33'0 0.0
2018-Jun-22 03:00N 48°57' W 125°33'0 0.0
2018-Jun-22 02:30N 48°57' W 125°33'0 0.0
2018-Jun-22 02:00N 48°57' W 125°33'0 0.0
2018-Jun-22 01:30N 48°57' W 125°33'0 0.0
2018-Jun-22 01:00N 48°57' W 125°33'0 0.0
2018-Jun-22 00:30N 48°57' W 125°33'0 0.0
2018-Jun-22 00:00N 48°57' W 125°33'0 0.0
2018-Jun-21 23:30N 48°57' W 125°33'0 0.0
2018-Jun-21 23:00N 48°57' W 125°33'0 0.0
2018-Jun-21 22:30N 48°57' W 125°33'0 0.4
2018-Jun-21 22:00N 48°57' W 125°33'0 0.3
2018-Jun-21 21:30N 48°57' W 125°33'3 5.7
2018-Jun-21 21:00N 48°54' W 125°33'4 7.6
2018-Jun-21 20:30N 48°52' W 125°37'4 7.5
2018-Jun-21 20:00N 48°50' W 125°43'4 7.6
2018-Jun-21 19:30N 48°48' W 125°48'4 7.4
2018-Jun-21 19:00N 48°47' W 125°53'4 7.5
2018-Jun-21 18:30N 48°45' W 125°57'4 7.1
2018-Jun-21 18:00N 48°43' W 126°02'3 6.9
2018-Jun-21 17:30N 48°41' W 126°06'4 7.2
2018-Jun-21 17:00N 48°39' W 126°11'1 1.1
2018-Jun-21 16:15N 48°39' W 126°12'0 0.8
2018-Jun-21 15:59N 48°39' W 126°13'2 2.2
2018-Jun-21 15:02N 48°37' W 126°11'0 2.5
2018-Jun-21 14:55N 48°37' W 126°11'1 2.6
2018-Jun-21 14:29N 48°36' W 126°10'4 7.5
2018-Jun-21 13:59N 48°38' W 126°14'2 4.4
2018-Jun-21 13:29N 48°37' W 126°12'3 6.8
2018-Jun-21 13:00N 48°34' W 126°10'4 6.5
2018-Jun-21 12:28N 48°31' W 126°08'3 6.0
2018-Jun-21 11:58N 48°30' W 126°04'0 0.8
2018-Jun-21 11:29N 48°30' W 126°04'0 1.0
2018-Jun-21 11:00N 48°30' W 126°05'1 1.0
2018-Jun-21 10:28N 48°31' W 126°05'0 0.9
2018-Jun-21 09:58N 48°31' W 126°06'0 0.9
2018-Jun-21 09:30N 48°31' W 126°07'0 0.8
2018-Jun-21 08:57N 48°31' W 126°07'0 0.8
2018-Jun-21 08:30N 48°31' W 126°08'0 0.8
2018-Jun-21 08:00N 48°31' W 126°08'2 2.8
2018-Jun-21 07:08N 48°31' W 126°05'2 7.6
2018-Jun-21 06:54N 48°31' W 126°02'4 7.7
2018-Jun-21 06:23N 48°30' W 125°56'4 7.7
2018-Jun-21 05:55N 48°30' W 125°51'3 7.7
2018-Jun-21 05:29N 48°29' W 125°46'4 7.9
2018-Jun-21 05:00N 48°28' W 125°40'4 7.7
2018-Jun-21 04:29N 48°28' W 125°34'4 3.5
2018-Jun-21 03:18N 48°27' W 125°28'1 2.4
2018-Jun-21 02:58N 48°27' W 125°27'2 2.4
2018-Jun-21 02:15N 48°28' W 125°24'0 1.2
2018-Jun-21 02:00N 48°28' W 125°24'4 5.0
2018-Jun-21 01:16N 48°27' W 125°18'3 7.9
2018-Jun-21 00:55N 48°27' W 125°14'5 6.8
2018-Jun-21 00:14N 48°28' W 125°07'3 8.3
2018-Jun-20 23:55N 48°29' W 125°11'3 8.2
2018-Jun-20 23:30N 48°30' W 125°16'5 7.2
2018-Jun-20 22:51N 48°29' W 125°23'3 7.1
2018-Jun-20 22:29N 48°27' W 125°25'3 2.9
2018-Jun-20 21:18N 48°30' W 125°22'2 6.3
2018-Jun-20 21:00N 48°29' W 125°19'2 3.6
2018-Jun-20 20:25N 48°29' W 125°16'5 2.5
2018-Jun-20 18:29N 48°32' W 125°22'1 2.0
2018-Jun-20 18:00N 48°31' W 125°23'1 2.2
2018-Jun-20 17:29N 48°30' W 125°24'2 1.6
2018-Jun-20 16:04N 48°32' W 125°22'0 2.6
2018-Jun-20 16:00N 48°32' W 125°22'3 5.1
2018-Jun-20 15:28N 48°30' W 125°23'3 5.5
2018-Jun-20 14:53N 48°26' W 125°23'3 7.8
2018-Jun-20 14:30N 48°26' W 125°18'5 2.6
2018-Jun-20 12:46N 48°31' W 125°19'3 5.6
2018-Jun-20 12:12N 48°33' W 125°22'1 2.9
2018-Jun-20 12:00N 48°33' W 125°23'10 6.8
2018-Jun-20 10:28N 48°43' W 125°27'4 8.1
2018-Jun-20 10:00N 48°47' W 125°28'4 8.4
2018-Jun-20 09:30N 48°51' W 125°30'4 8.1
2018-Jun-20 09:00N 48°55' W 125°31'2 3.8
2018-Jun-20 08:30N 48°57' W 125°33'0 0.0
2018-Jun-20 08:00N 48°57' W 125°33'0 0.0
2018-Jun-20 07:30N 48°57' W 125°33'0 0.0
2018-Jun-20 07:00N 48°57' W 125°33'0 0.0
2018-Jun-20 06:30N 48°57' W 125°33'0 0.0
2018-Jun-20 06:00N 48°57' W 125°33'0 0.0
2018-Jun-20 05:30N 48°57' W 125°33'0 0.0
2018-Jun-20 05:00N 48°57' W 125°33'0 0.0
2018-Jun-20 04:30N 48°57' W 125°33'0 0.0
2018-Jun-20 04:00N 48°57' W 125°33'0 0.0
2018-Jun-20 03:30N 48°57' W 125°33'0 0.0
2018-Jun-20 03:00N 48°57' W 125°33'0 0.0
2018-Jun-20 02:30N 48°57' W 125°33'0 0.0
2018-Jun-20 02:00N 48°57' W 125°33'0 0.0
2018-Jun-20 01:30N 48°57' W 125°33'0 0.1
2018-Jun-20 01:00N 48°57' W 125°33'0 0.0
2018-Jun-20 00:30N 48°57' W 125°33'0 0.0
2018-Jun-20 00:00N 48°57' W 125°33'0 0.0
2018-Jun-19 23:30N 48°57' W 125°33'0 0.0
2018-Jun-19 23:00N 48°57' W 125°33'0 0.0
2018-Jun-19 22:30N 48°57' W 125°33'1 1.1
2018-Jun-19 22:00N 48°56' W 125°32'0 0.0
2018-Jun-19 21:30N 48°56' W 125°32'1 1.8
2018-Jun-19 21:00N 48°57' W 125°33'0 0.6
2018-Jun-19 20:30N 48°57' W 125°33'0 0.1
2018-Jun-19 20:00N 48°57' W 125°33'0 0.0
2018-Jun-19 19:30N 48°57' W 125°33'0 0.0
2018-Jun-19 19:00N 48°57' W 125°33'0 0.0
2018-Jun-19 18:30N 48°57' W 125°33'0 0.0
2018-Jun-19 18:00N 48°57' W 125°33'0 0.0
2018-Jun-19 17:30N 48°57' W 125°33'0 0.0
2018-Jun-19 17:00N 48°57' W 125°33'0 0.0
2018-Jun-19 16:30N 48°57' W 125°33'0 0.0
2018-Jun-19 16:00N 48°57' W 125°33'0 0.0
2018-Jun-19 15:30N 48°57' W 125°33'0 0.0
2018-Jun-19 15:00N 48°57' W 125°33'0 0.0
2018-Jun-19 14:30N 48°57' W 125°33'0 0.0
2018-Jun-19 14:00N 48°57' W 125°33'0 0.0
2018-Jun-19 13:30N 48°57' W 125°33'0 0.0
2018-Jun-19 13:00N 48°57' W 125°33'0 0.0
2018-Jun-19 12:30N 48°57' W 125°33'0 0.0
2018-Jun-19 12:00N 48°57' W 125°33'0 0.0
2018-Jun-19 11:30N 48°57' W 125°33'0 0.0
2018-Jun-19 11:00N 48°57' W 125°33'0 0.0
2018-Jun-19 10:30N 48°57' W 125°33'0 0.0
2018-Jun-19 10:00N 48°57' W 125°33'0 0.0
2018-Jun-19 09:30N 48°57' W 125°33'0 0.0
2018-Jun-19 09:00N 48°57' W 125°33'0 0.0
2018-Jun-19 08:30N 48°57' W 125°33'0 0.0
2018-Jun-19 08:00N 48°57' W 125°33'0 0.0
2018-Jun-19 07:30N 48°57' W 125°33'0 0.0
2018-Jun-19 07:00N 48°57' W 125°33'0 0.0
2018-Jun-19 06:30N 48°57' W 125°33'0 0.0
2018-Jun-19 06:00N 48°57' W 125°33'0 0.0
2018-Jun-19 05:30N 48°57' W 125°33'0 0.0
2018-Jun-19 05:00N 48°57' W 125°33'0 0.0
2018-Jun-19 04:30N 48°57' W 125°33'0 0.0
2018-Jun-19 04:00N 48°57' W 125°33'0 0.0
2018-Jun-19 03:30N 48°57' W 125°33'0 0.0
2018-Jun-19 03:00N 48°57' W 125°33'0 0.0
2018-Jun-19 02:30N 48°57' W 125°33'0 0.0
2018-Jun-19 02:00N 48°57' W 125°33'0 0.0
2018-Jun-19 01:30N 48°57' W 125°33'0 0.0
2018-Jun-19 01:00N 48°57' W 125°33'0 0.0
2018-Jun-19 00:30N 48°57' W 125°33'0 0.0
2018-Jun-19 00:00N 48°57' W 125°33'0 0.0
2018-Jun-18 23:30N 48°57' W 125°33'0 0.0
2018-Jun-18 23:00N 48°57' W 125°33'0 0.0
2018-Jun-18 22:30N 48°57' W 125°33'0 0.0
2018-Jun-18 22:00N 48°57' W 125°33'0 0.0
2018-Jun-18 21:30N 48°57' W 125°33'0 0.0
2018-Jun-18 21:00N 48°57' W 125°33'0 0.0
2018-Jun-18 20:30N 48°57' W 125°33'0 0.0
2018-Jun-18 20:00N 48°57' W 125°33'0 0.0
2018-Jun-18 19:30N 48°57' W 125°33'0 0.0
2018-Jun-18 19:00N 48°57' W 125°33'0 0.0
2018-Jun-18 18:30N 48°57' W 125°33'0 0.0
2018-Jun-18 18:00N 48°57' W 125°33'0 0.0
2018-Jun-18 17:30N 48°57' W 125°33'0 0.0
2018-Jun-18 17:00N 48°57' W 125°33'0 0.0
2018-Jun-18 16:30N 48°57' W 125°33'0 0.0
2018-Jun-18 16:00N 48°57' W 125°33'0 0.0
2018-Jun-18 15:30N 48°57' W 125°33'0 0.0
2018-Jun-18 15:00N 48°57' W 125°33'0 0.0
2018-Jun-18 14:30N 48°57' W 125°33'0 0.0
2018-Jun-18 14:00N 48°57' W 125°33'0 0.0
2018-Jun-18 13:30N 48°57' W 125°33'0 0.0
2018-Jun-18 13:00N 48°57' W 125°33'0 0.0
2018-Jun-18 12:30N 48°57' W 125°33'0 0.0
2018-Jun-18 12:00N 48°57' W 125°33'0 0.0
2018-Jun-18 11:30N 48°57' W 125°33'0 0.0
2018-Jun-18 11:00N 48°57' W 125°33'0 0.0
2018-Jun-18 10:30N 48°57' W 125°33'0 0.0
2018-Jun-18 10:00N 48°57' W 125°33'0 0.0
2018-Jun-18 09:30N 48°57' W 125°33'0 0.0
2018-Jun-18 09:00N 48°57' W 125°33'0 0.0
2018-Jun-18 08:30N 48°57' W 125°33'0 0.0
2018-Jun-18 08:00N 48°57' W 125°33'0 0.0
2018-Jun-18 07:30N 48°57' W 125°33'0 0.0
2018-Jun-18 07:00N 48°57' W 125°33'0 0.0
2018-Jun-18 06:30N 48°57' W 125°33'0 0.0
2018-Jun-18 06:00N 48°57' W 125°33'0 0.0
2018-Jun-18 05:30N 48°57' W 125°33'0 0.0
2018-Jun-18 05:00N 48°57' W 125°33'0 0.0
2018-Jun-18 04:30N 48°57' W 125°33'0 0.0
2018-Jun-18 04:00N 48°57' W 125°33'0 0.0
2018-Jun-18 03:30N 48°57' W 125°33'0 0.0
2018-Jun-18 03:00N 48°57' W 125°33'0 0.0
2018-Jun-18 02:30N 48°57' W 125°33'0 0.0
2018-Jun-18 02:00N 48°57' W 125°33'0 0.0
2018-Jun-18 01:30N 48°57' W 125°33'0 0.0
2018-Jun-18 01:00N 48°57' W 125°33'0 0.0
2018-Jun-18 00:30N 48°57' W 125°33'0 0.0
2018-Jun-18 00:00N 48°57' W 125°33'0 0.0
2018-Jun-17 23:30N 48°57' W 125°33'0 0.0
2018-Jun-17 23:00N 48°57' W 125°33'0 0.0
2018-Jun-17 22:30N 48°57' W 125°33'0 0.0
2018-Jun-17 22:00N 48°57' W 125°33'0 0.0
2018-Jun-17 21:30N 48°57' W 125°33'0 0.0
2018-Jun-17 21:00N 48°57' W 125°33'0 0.0
2018-Jun-17 20:30N 48°57' W 125°33'0 0.0
2018-Jun-17 20:00N 48°57' W 125°33'0 0.0
2018-Jun-17 19:30N 48°57' W 125°33'0 0.0
2018-Jun-17 19:00N 48°57' W 125°33'0 0.0
2018-Jun-17 18:30N 48°57' W 125°33'0 0.0
2018-Jun-17 18:00N 48°57' W 125°33'0 0.0
2018-Jun-17 17:30N 48°57' W 125°33'0 0.0
2018-Jun-17 17:00N 48°57' W 125°33'0 0.0
2018-Jun-17 16:30N 48°57' W 125°33'0 0.0
2018-Jun-17 16:00N 48°57' W 125°33'0 0.0
2018-Jun-17 15:30N 48°57' W 125°33'0 0.0
2018-Jun-17 15:00N 48°57' W 125°33'0 0.0
2018-Jun-17 14:30N 48°57' W 125°33'0 0.0
2018-Jun-17 14:00N 48°57' W 125°33'0 0.0
2018-Jun-17 13:30N 48°57' W 125°33'0 0.0
2018-Jun-17 13:00N 48°57' W 125°33'0 0.0
2018-Jun-17 12:30N 48°57' W 125°33'0 0.0
2018-Jun-17 12:00N 48°57' W 125°33'0 0.0
2018-Jun-17 11:30N 48°57' W 125°33'0 0.0
2018-Jun-17 11:00N 48°57' W 125°33'0 0.0
2018-Jun-17 10:30N 48°57' W 125°33'0 0.0
2018-Jun-17 10:00N 48°57' W 125°33'0 0.0
2018-Jun-17 09:30N 48°57' W 125°33'0 0.0
2018-Jun-17 09:00N 48°57' W 125°33'0 0.0
2018-Jun-17 08:30N 48°57' W 125°33'0 0.0
2018-Jun-17 08:00N 48°57' W 125°33'0 0.0
2018-Jun-17 07:30N 48°57' W 125°33'0 0.0
2018-Jun-17 07:00N 48°57' W 125°33'0 0.0
2018-Jun-17 06:30N 48°57' W 125°33'0 0.0
2018-Jun-17 06:00N 48°57' W 125°33'0 0.0
2018-Jun-17 05:30N 48°57' W 125°33'0 0.0
2018-Jun-17 05:00N 48°57' W 125°33'0 0.0
2018-Jun-17 04:30N 48°57' W 125°33'0 0.0
2018-Jun-17 04:00N 48°57' W 125°33'0 0.0
2018-Jun-17 03:30N 48°57' W 125°33'0 0.0
2018-Jun-17 03:00N 48°57' W 125°33'0 0.0
2018-Jun-17 02:30N 48°57' W 125°33'0 0.0
2018-Jun-17 02:00N 48°57' W 125°33'0 0.0
2018-Jun-17 01:30N 48°57' W 125°33'0 0.0
2018-Jun-17 01:00N 48°57' W 125°33'0 0.0
2018-Jun-17 00:30N 48°57' W 125°33'0 0.0
2018-Jun-17 00:00N 48°57' W 125°33'0 0.0
2018-Jun-16 23:30N 48°57' W 125°33'0 0.0
2018-Jun-16 23:00N 48°57' W 125°33'0 0.0
2018-Jun-16 22:30N 48°57' W 125°33'0 0.0
2018-Jun-16 22:00N 48°57' W 125°33'0 0.0
2018-Jun-16 21:30N 48°57' W 125°33'0 0.0
2018-Jun-16 21:00N 48°57' W 125°33'0 0.0
2018-Jun-16 20:30N 48°57' W 125°33'0 0.0
2018-Jun-16 20:00N 48°57' W 125°33'0 0.0
2018-Jun-16 19:30N 48°57' W 125°33'0 0.0
2018-Jun-16 19:00N 48°57' W 125°33'0 0.0
2018-Jun-16 18:30N 48°57' W 125°33'0 0.0
2018-Jun-16 18:00N 48°57' W 125°33'0 0.0
2018-Jun-16 05:43N 48°57' W 125°33'0 0.0
2018-Jun-16 05:30N 48°57' W 125°33'0 0.0
2018-Jun-16 05:00N 48°57' W 125°33'0 0.0
2018-Jun-16 04:30N 48°57' W 125°33'0 0.0
2018-Jun-16 04:00N 48°57' W 125°33'0 0.0
2018-Jun-16 03:30N 48°57' W 125°33'0 0.0
2018-Jun-16 03:00N 48°57' W 125°33'0 0.0
2018-Jun-16 02:30N 48°57' W 125°33'0 0.0
2018-Jun-16 02:00N 48°57' W 125°33'0 0.0
2018-Jun-16 01:30N 48°57' W 125°33'0 0.0
2018-Jun-16 01:00N 48°57' W 125°33'0 0.0
2018-Jun-16 00:30N 48°57' W 125°33'0 0.0
2018-Jun-16 00:00N 48°57' W 125°33'0 0.0
2018-Jun-15 23:30N 48°57' W 125°33'0 0.0
2018-Jun-15 23:00N 48°57' W 125°33'0 0.0
2018-Jun-15 22:30N 48°57' W 125°33'0 0.0
2018-Jun-15 22:00N 48°57' W 125°33'0 0.0
2018-Jun-15 21:30N 48°57' W 125°33'0 0.0
2018-Jun-15 21:00N 48°57' W 125°33'0 0.0
2018-Jun-15 20:30N 48°57' W 125°33'0 0.0
2018-Jun-15 20:00N 48°57' W 125°33'0 0.0
2018-Jun-15 19:30N 48°57' W 125°33'0 0.0
2018-Jun-15 19:00N 48°57' W 125°33'0 0.0
2018-Jun-15 18:31N 48°57' W 125°33'0 0.0
2018-Jun-15 18:00N 48°57' W 125°33'0 0.0
2018-Jun-15 17:30N 48°57' W 125°33'0 0.0
2018-Jun-15 17:01N 48°57' W 125°33'0 0.0
2018-Jun-15 16:30N 48°57' W 125°33'0 0.0
2018-Jun-15 16:00N 48°57' W 125°33'0 0.0
2018-Jun-15 15:30N 48°57' W 125°33'0 0.0
2018-Jun-15 15:00N 48°57' W 125°33'0 0.0
2018-Jun-15 14:30N 48°57' W 125°33'0 0.0
2018-Jun-15 14:00N 48°57' W 125°33'0 0.0
2018-Jun-15 13:30N 48°57' W 125°33'0 0.0
2018-Jun-15 13:00N 48°57' W 125°33'0 0.0
2018-Jun-15 12:30N 48°57' W 125°33'0 0.0
2018-Jun-15 12:00N 48°57' W 125°33'0 0.0
2018-Jun-15 11:30N 48°57' W 125°33'0 0.0
2018-Jun-15 11:00N 48°57' W 125°33'0 0.0
2018-Jun-15 10:30N 48°57' W 125°33'0 0.0
2018-Jun-15 10:00N 48°57' W 125°33'0 0.0
2018-Jun-15 09:30N 48°57' W 125°33'0 0.0
2018-Jun-15 09:00N 48°57' W 125°33'0 0.0
2018-Jun-15 08:31N 48°57' W 125°33'0 0.0
2018-Jun-15 08:01N 48°57' W 125°33'0 0.0
2018-Jun-15 07:30N 48°57' W 125°33'0 0.0
2018-Jun-15 07:00N 48°57' W 125°33'0 0.0
2018-Jun-15 06:30N 48°57' W 125°33'0 0.0
2018-Jun-15 06:00N 48°57' W 125°33'0 0.0
2018-Jun-15 05:30N 48°57' W 125°33'0 0.0
2018-Jun-15 05:01N 48°57' W 125°33'0 1.0
2018-Jun-15 04:30N 48°57' W 125°33'0 0.0
2018-Jun-15 04:00N 48°57' W 125°33'0 0.0
2018-Jun-15 03:30N 48°57' W 125°33'0 0.0
2018-Jun-15 03:00N 48°57' W 125°33'0 0.0
2018-Jun-15 02:30N 48°57' W 125°33'0 0.0
2018-Jun-15 02:00N 48°57' W 125°33'0 0.0
2018-Jun-15 01:31N 48°57' W 125°33'0 0.0
2018-Jun-15 01:00N 48°57' W 125°33'0 0.0
2018-Jun-15 00:30N 48°57' W 125°33'0 0.0
2018-Jun-15 00:00N 48°57' W 125°33'0 0.0
2018-Jun-14 23:30N 48°57' W 125°33'0 0.0
2018-Jun-14 23:01N 48°57' W 125°33'0 0.0
2018-Jun-14 22:30N 48°57' W 125°33'0 0.0
2018-Jun-14 22:00N 48°57' W 125°33'0 0.0
2018-Jun-14 21:30N 48°57' W 125°33'0 0.0
2018-Jun-14 21:00N 48°57' W 125°33'0 0.0
2018-Jun-14 20:30N 48°57' W 125°33'0 0.0
2018-Jun-14 20:00N 48°57' W 125°33'0 0.0
2018-Jun-14 19:31N 48°57' W 125°33'0 0.0
2018-Jun-14 19:00N 48°57' W 125°33'0 0.0
2018-Jun-14 18:31N 48°57' W 125°33'0 0.0
2018-Jun-14 18:00N 48°57' W 125°33'0 0.0
2018-Jun-14 17:31N 48°57' W 125°33'0 0.0
2018-Jun-14 17:00N 48°57' W 125°33'0 0.1
2018-Jun-14 16:31N 48°57' W 125°33'0 0.0
2018-Jun-14 16:00N 48°57' W 125°33'0 0.0
2018-Jun-14 15:31N 48°57' W 125°33'0 0.0
2018-Jun-14 15:00N 48°57' W 125°33'0 0.0
2018-Jun-14 14:30N 48°57' W 125°33'0 0.0
2018-Jun-14 14:00N 48°57' W 125°33'0 0.0
2018-Jun-14 13:30N 48°57' W 125°33'0 0.0
2018-Jun-14 13:00N 48°57' W 125°33'0 0.0
2018-Jun-14 12:30N 48°57' W 125°33'0 0.0
2018-Jun-14 12:01N 48°57' W 125°33'0 0.0
2018-Jun-14 11:30N 48°57' W 125°33'0 0.0
2018-Jun-14 11:00N 48°57' W 125°33'0 0.0
2018-Jun-14 10:30N 48°57' W 125°33'0 0.0
2018-Jun-14 10:00N 48°57' W 125°33'0 1.0
2018-Jun-14 09:31N 48°56' W 125°32'2 3.3
2018-Jun-14 09:00N 48°55' W 125°34'3 7.0
2018-Jun-14 08:30N 48°57' W 125°39'3 6.8
2018-Jun-14 08:01N 48°58' W 125°43'3 7.0
2018-Jun-14 07:30N 48°60' W 125°48'3 6.8
2018-Jun-14 07:00N 49°02' W 125°53'3 6.9
2018-Jun-14 06:30N 49°03' W 125°57'4 7.0
2018-Jun-14 06:00N 49°05' W 126°02'4 7.4
2018-Jun-14 05:30N 49°07' W 126°07'4 7.3
2018-Jun-14 05:00N 49°08' W 126°12'4 7.3
2018-Jun-14 04:30N 49°10' W 126°17'4 7.1
2018-Jun-14 03:58N 49°12' W 126°22'3 6.9
2018-Jun-14 03:29N 49°13' W 126°27'3 6.7
2018-Jun-14 03:00N 49°15' W 126°31'3 6.7
2018-Jun-14 02:30N 49°16' W 126°36'3 6.7
2018-Jun-14 02:01N 49°18' W 126°40'3 6.5
2018-Jun-14 01:30N 49°20' W 126°44'4 6.6
2018-Jun-14 00:58N 49°22' W 126°48'3 6.8
2018-Jun-14 00:28N 49°24' W 126°53'4 6.7
2018-Jun-13 23:57N 49°25' W 126°58'4 6.7
2018-Jun-13 23:19N 49°28' W 127°03'9 0.7
2018-Jun-13 08:55N 49°21' W 126°53'3 6.9
2018-Jun-13 08:30N 49°20' W 126°50'4 7.5
2018-Jun-13 08:00N 49°18' W 126°44'4 7.8
2018-Jun-13 07:31N 49°16' W 126°39'4 7.9
2018-Jun-13 07:00N 49°15' W 126°33'4 7.8
2018-Jun-13 06:31N 49°13' W 126°28'4 7.9
2018-Jun-13 05:59N 49°11' W 126°22'17 7.7
2018-Jun-13 03:47N 49°04' W 125°59'2 7.5
2018-Jun-13 03:27N 49°02' W 125°56'4 7.8
2018-Jun-13 03:00N 49°01' W 125°51'4 8.5
2018-Jun-13 02:30N 48°59' W 125°45'4 8.8
2018-Jun-13 02:00N 48°57' W 125°39'4 8.5
2018-Jun-13 01:30N 48°55' W 125°34'2 3.1
2018-Jun-13 01:01N 48°57' W 125°33'0 0.0
2018-Jun-13 00:30N 48°57' W 125°33'0 0.1
2018-Jun-13 00:01N 48°57' W 125°33'0 0.0
2018-Jun-12 23:30N 48°57' W 125°33'0 0.0
2018-Jun-12 23:00N 48°57' W 125°33'0 0.0
2018-Jun-12 22:30N 48°57' W 125°33'0 0.0
2018-Jun-12 22:00N 48°57' W 125°33'0 0.0
2018-Jun-12 21:30N 48°57' W 125°33'1 1.0
2018-Jun-12 21:00N 48°57' W 125°33'0 0.0
2018-Jun-12 20:30N 48°57' W 125°33'0 0.0
2018-Jun-12 20:00N 48°57' W 125°33'0 0.0
2018-Jun-12 19:30N 48°57' W 125°33'0 0.0
2018-Jun-12 19:00N 48°57' W 125°33'  

Dump ship's entire track history